Time;durP1;ratioP1;P1;durP2;ratioP2;P2;SDS_P1;SDS_P2;PMS_P1;PMS_P2;Temp;Humidity;BMP_temperature;BMP_pressure;BME280_temperature;BME280_humidity;BME280_pressure;Samples;Min_cycle;Max_cycle;Signal;HPM_P1;HPM_P2
2022/02/15 00:01:52;;;;;;;22.70;12.60;;;;;;;-0.99;100.00;95409.66;5043473;28;20065;-47
2022/02/15 00:04:19;;;;;;;35.10;16.05;;;;;;;-0.94;100.00;95422.00;5046632;28;20461;-50
2022/02/15 00:06:46;;;;;;;39.15;15.55;;;;;;;-0.94;100.00;95413.53;5044573;28;20081;-48
2022/02/15 00:09:14;;;;;;;24.23;13.00;;;;;;;-1.02;100.00;95415.06;5044224;28;20052;-48
2022/02/15 00:11:41;;;;;;;27.90;13.55;;;;;;;-1.18;100.00;95404.66;5044903;28;20056;-46
2022/02/15 00:14:08;;;;;;;30.00;13.57;;;;;;;-1.14;100.00;95421.31;5047912;28;20491;-49
2022/02/15 00:16:35;;;;;;;34.70;17.30;;;;;;;-1.21;100.00;95420.28;5046660;28;20498;-46
2022/02/15 00:19:02;;;;;;;22.65;12.05;;;;;;;-1.27;100.00;95415.75;5045096;28;20045;-47
2022/02/15 00:21:29;;;;;;;27.65;13.80;;;;;;;-1.29;100.00;95422.75;5044999;28;20732;-46
2022/02/15 00:23:56;;;;;;;26.30;13.68;;;;;;;-1.38;100.00;95415.00;5048401;28;20048;-46
2022/02/15 00:26:26;;;;;;;27.98;12.90;;;;;;;-1.45;100.00;95413.94;5047482;28;20084;-47
2022/02/15 00:28:53;;;;;;;24.27;11.85;;;;;;;-1.47;100.00;95405.63;5045614;28;20123;-49
2022/02/15 00:31:20;;;;;;;21.88;11.82;;;;;;;-1.49;100.00;95409.28;5047120;28;20145;-45
2022/02/15 00:33:47;;;;;;;24.83;11.50;;;;;;;-1.47;100.00;95409.94;5045084;28;20041;-48
2022/02/15 00:36:15;;;;;;;23.67;11.38;;;;;;;-1.48;100.00;95404.00;5046993;28;20048;-48
2022/02/15 00:38:42;;;;;;;20.45;10.70;;;;;;;-1.60;100.00;95395.75;5047850;28;20036;-47
2022/02/15 00:41:09;;;;;;;21.52;10.60;;;;;;;-1.53;100.00;95406.22;5043238;28;20110;-48
2022/02/15 00:43:36;;;;;;;31.92;13.43;;;;;;;-1.48;100.00;95403.22;5043490;28;20041;-48
2022/02/15 00:46:04;;;;;;;20.13;10.07;;;;;;;-1.48;100.00;95411.66;5048000;28;20064;-47
2022/02/15 00:48:32;;;;;;;19.80;10.13;;;;;;;-1.50;100.00;95405.91;5044486;28;20049;-49
2022/02/15 00:50:59;;;;;;;21.30;9.95;;;;;;;-1.48;100.00;95398.09;5045181;28;20044;-48
2022/02/15 00:53:26;;;;;;;22.55;9.88;;;;;;;-1.43;100.00;95404.38;5048022;28;20053;-51
2022/02/15 00:55:53;;;;;;;19.58;9.88;;;;;;;-1.43;100.00;95401.84;5045567;28;20162;-47
2022/02/15 00:58:19;;;;;;;18.30;8.20;;;;;;;-1.39;100.00;95398.06;5047767;28;20511;-47
2022/02/15 01:00:46;;;;;;;19.75;9.82;;;;;;;-1.37;100.00;95393.63;5045724;28;20873;-49
2022/02/15 01:03:13;;;;;;;19.67;9.02;;;;;;;-1.40;100.00;95393.88;5045913;28;20392;-49
2022/02/15 01:05:42;;;;;;;50.72;22.80;;;;;;;-1.43;100.00;95396.72;5043680;28;22155;-46
2022/02/15 01:08:12;;;;;;;31.27;15.23;;;;;;;-1.44;100.00;95384.91;5049123;28;20416;-46
2022/02/15 01:10:40;;;;;;;31.02;14.70;;;;;;;-1.39;100.00;95385.28;5045362;28;20048;-47
2022/02/15 01:13:07;;;;;;;36.20;15.95;;;;;;;-1.45;100.00;95388.41;5045651;28;20057;-50
2022/02/15 01:15:34;;;;;;;33.90;14.15;;;;;;;-1.51;100.00;95376.22;5044412;28;20041;-48
2022/02/15 01:18:01;;;;;;;42.35;18.52;;;;;;;-1.49;100.00;95376.06;5047612;28;20510;-49
2022/02/15 01:20:28;;;;;;;34.53;16.92;;;;;;;-1.49;100.00;95374.31;5044746;28;20049;-49
2022/02/15 01:22:55;;;;;;;21.02;11.57;;;;;;;-1.48;100.00;95372.56;5048614;28;20055;-48
2022/02/15 01:25:23;;;;;;;28.63;13.93;;;;;;;-1.47;100.00;95369.84;5043862;28;20061;-47
2022/02/15 01:27:50;;;;;;;34.88;13.80;;;;;;;-1.46;100.00;95374.03;5046477;28;20044;-49
2022/02/15 01:30:17;;;;;;;28.85;9.98;;;;;;;-1.49;100.00;95360.75;5052342;28;20407;-47
2022/02/15 01:32:45;;;;;;;26.15;11.88;;;;;;;-1.56;100.00;95360.50;5066104;28;20040;-49
2022/02/15 01:35:11;;;;;;;26.80;12.98;;;;;;;-1.67;100.00;95363.25;5046137;28;20518;-48
2022/02/15 01:37:39;;;;;;;56.42;20.42;;;;;;;-1.77;100.00;95364.06;5047392;28;20124;-51
2022/02/15 01:40:07;;;;;;;101.95;37.00;;;;;;;-1.89;100.00;95355.00;5047748;28;20056;-47
2022/02/15 01:42:35;;;;;;;53.85;22.10;;;;;;;-2.05;100.00;95339.47;5049924;28;20161;-48
2022/02/15 01:45:03;;;;;;;30.40;15.43;;;;;;;-1.98;100.00;95348.16;5044549;28;20056;-51
2022/02/15 01:47:31;;;;;;;31.77;14.55;;;;;;;-1.88;100.00;95348.94;5051472;28;20053;-48
2022/02/15 01:49:59;;;;;;;36.35;15.98;;;;;;;-1.77;100.00;95348.75;5051188;28;20068;-48
2022/02/15 01:52:27;;;;;;;32.47;14.93;;;;;;;-1.76;100.00;95335.06;5046062;28;20045;-48
2022/02/15 01:54:57;;;;;;;37.13;14.50;;;;;;;-1.73;100.00;95339.88;5059129;28;20048;-48
2022/02/15 01:57:25;;;;;;;28.67;14.40;;;;;;;-1.75;100.00;95335.84;5047984;28;20137;-48
2022/02/15 02:00:02;;;;;;;23.50;11.10;;;;;;;-1.72;100.00;95333.00;5046030;28;20041;-51
2022/02/15 02:02:40;;;;;;;24.88;12.45;;;;;;;-1.68;100.00;95333.53;5051660;28;20056;-49
2022/02/15 02:07:57;;;;;;;30.55;13.93;;;;;;;-1.61;100.00;95357.56;5071626;28;20060;-48
2022/02/15 02:10:28;;;;;;;31.27;15.25;;;;;;;-1.59;100.00;95350.56;5046962;28;20044;-49
2022/02/15 02:12:57;;;;;;;25.40;12.82;;;;;;;-1.63;100.00;95344.13;5048225;28;20057;-47
2022/02/15 02:15:25;;;;;;;22.83;11.63;;;;;;;-1.78;100.00;95342.06;5046638;28;20049;-48
2022/02/15 02:18:11;;;;;;;22.85;11.63;;;;;;;-1.87;100.00;95337.81;5049667;28;20106;-48
2022/02/15 02:20:42;;;;;;;19.65;10.63;;;;;;;-1.92;100.00;95345.06;5062660;28;20503;-49
2022/02/15 02:23:09;;;;;;;21.95;10.80;;;;;;;-1.90;100.00;95348.28;5067830;28;20051;-48
2022/02/15 02:25:37;;;;;;;24.65;12.43;;;;;;;-1.97;100.00;95331.91;5048151;28;20051;-48
2022/02/15 02:28:05;;;;;;;29.98;12.18;;;;;;;-1.99;100.00;95359.34;5047050;28;20507;-48
2022/02/15 02:30:32;;;;;;;17.80;10.52;;;;;;;-2.01;100.00;95356.94;5047594;28;20053;-46
2022/02/15 02:33:01;;;;;;;19.70;10.05;;;;;;;-2.02;100.00;95357.06;5052783;28;20415;-48
2022/02/15 02:35:28;;;;;;;23.27;10.15;;;;;;;-2.10;100.00;95356.97;5047481;28;20052;-48
2022/02/15 02:37:57;;;;;;;17.58;8.45;;;;;;;-2.15;100.00;95365.81;5051669;28;20047;-49
2022/02/15 02:40:24;;;;;;;20.17;10.38;;;;;;;-2.18;100.00;95355.91;5046656;28;20067;-48
2022/02/15 02:42:51;;;;;;;25.65;10.02;;;;;;;-2.18;100.00;95361.03;5047114;28;20055;-47
2022/02/15 02:45:21;;;;;;;18.92;9.68;;;;;;;-2.21;100.00;95363.84;5048535;28;20053;-50
2022/02/15 02:47:51;;;;;;;17.63;9.60;;;;;;;-2.21;100.00;95361.28;5047944;28;20045;-48
2022/02/15 02:50:20;;;;;;;21.55;9.82;;;;;;;-2.24;100.00;95371.78;5064004;28;20063;-48
2022/02/15 02:52:47;;;;;;;21.27;10.88;;;;;;;-2.29;100.00;95366.28;5051990;28;20115;-51
2022/02/15 02:55:18;;;;;;;18.95;10.55;;;;;;;-2.18;100.00;95376.34;5047096;28;20049;-49
2022/02/15 02:57:47;;;;;;;21.73;11.95;;;;;;;-2.11;100.00;95386.78;5050867;28;20072;-48
2022/02/15 03:00:17;;;;;;;26.17;13.90;;;;;;;-2.17;100.00;95382.25;5048766;28;20044;-48
2022/02/15 03:03:09;;;;;;;25.30;13.50;;;;;;;-2.23;100.00;95378.50;5047793;28;20139;-50
2022/02/15 03:05:40;;;;;;;30.92;14.25;;;;;;;-2.30;100.00;95372.34;5046773;28;20150;-47
2022/02/15 03:08:07;;;;;;;25.38;13.30;;;;;;;-2.30;100.00;95377.44;5047859;28;20052;-52
2022/02/15 03:10:34;;;;;;;28.90;12.70;;;;;;;-2.29;100.00;95379.03;5060247;28;20079;-50
2022/02/15 03:13:03;;;;;;;32.97;14.95;;;;;;;-2.27;100.00;95382.25;5047097;28;20106;-50
2022/02/15 03:15:30;;;;;;;30.05;13.95;;;;;;;-2.27;100.00;95387.34;5047698;28;20057;-47
2022/02/15 03:17:59;;;;;;;28.38;12.70;;;;;;;-2.20;100.00;95393.50;5046206;28;20045;-47
2022/02/15 03:20:29;;;;;;;31.00;15.30;;;;;;;-2.20;100.00;95392.72;5047508;28;20507;-48
2022/02/15 03:22:56;;;;;;;31.98;15.13;;;;;;;-2.13;100.00;95404.78;5047518;28;20106;-48
2022/02/15 03:25:24;;;;;;;39.47;16.92;;;;;;;-2.14;100.00;95408.28;5048422;28;20123;-47
2022/02/15 03:27:51;;;;;;;27.23;13.88;;;;;;;-2.22;100.00;95409.91;5046288;28;20049;-47
2022/02/15 03:30:19;;;;;;;29.20;14.82;;;;;;;-2.24;100.00;95412.59;5048532;28;20461;-47
2022/02/15 03:32:45;;;;;;;28.23;12.73;;;;;;;-2.26;100.00;95409.38;5049361;28;20419;-50
2022/02/15 03:35:13;;;;;;;24.92;13.80;;;;;;;-2.28;100.00;95416.38;5050231;28;20056;-49
2022/02/15 03:37:45;;;;;;;34.38;14.63;;;;;;;-2.26;100.00;95411.13;5044583;28;20059;-48
2022/02/15 03:40:12;;;;;;;34.45;13.45;;;;;;;-2.34;100.00;95412.63;5046182;28;20515;-48
2022/02/15 03:45:28;;;;;;;28.05;13.45;;;;;;;-2.33;100.00;95415.97;5062597;28;20095;-49
2022/02/15 03:48:09;;;;;;;25.02;12.05;;;;;;;-2.29;100.00;95414.75;5045739;28;20037;-51
2022/02/15 03:50:38;;;;;;;33.22;15.45;;;;;;;-2.28;100.00;95421.47;5047098;28;20044;-47
2022/02/15 03:53:06;;;;;;;25.05;12.55;;;;;;;-2.28;100.00;95428.34;5046424;28;20423;-47
2022/02/15 03:55:34;;;;;;;23.90;13.65;;;;;;;-2.32;100.00;95425.25;5046359;28;20813;-48
2022/02/15 03:58:03;;;;;;;29.27;15.02;;;;;;;-2.40;100.00;95417.47;5050403;28;20426;-48
2022/02/15 04:00:30;;;;;;;27.35;14.48;;;;;;;-2.40;100.00;95423.38;5061838;28;20055;-53
2022/02/15 04:03:20;;;;;;;30.67;14.05;;;;;;;-2.38;100.00;95425.78;5045630;28;20053;-47
2022/02/15 04:05:48;;;;;;;27.83;13.88;;;;;;;-2.39;100.00;95424.19;5045857;28;20102;-47
2022/02/15 04:08:16;;;;;;;38.22;16.15;;;;;;;-2.39;100.00;95419.88;5044760;28;20049;-47
2022/02/15 04:10:44;;;;;;;31.05;15.52;;;;;;;-2.37;100.00;95428.19;5048583;28;20041;-51
2022/02/15 04:13:16;;;;;;;37.25;14.40;;;;;;;-2.33;100.00;95421.06;5061032;28;20053;-48
2022/02/15 04:15:44;;;;;;;31.63;14.02;;;;;;;-2.35;100.00;95425.53;5047777;28;20056;-49
2022/02/15 04:18:11;;;;;;;31.48;13.93;;;;;;;-2.33;100.00;95414.22;5045480;28;20526;-48
2022/02/15 04:20:38;;;;;;;27.45;13.45;;;;;;;-2.31;100.00;95421.75;5044885;28;20045;-51
2022/02/15 04:23:07;;;;;;;34.55;15.18;;;;;;;-2.31;100.00;95422.53;5061296;28;20513;-51
2022/02/15 04:25:34;;;;;;;28.73;13.68;;;;;;;-2.22;100.00;95425.22;5046878;28;20106;-47
2022/02/15 04:28:04;;;;;;;32.35;14.20;;;;;;;-2.20;100.00;95419.03;5046182;28;20048;-50
2022/02/15 04:30:32;;;;;;;37.20;17.60;;;;;;;-2.19;100.00;95419.84;5042378;28;20491;-48
2022/02/15 04:32:59;;;;;;;37.50;18.08;;;;;;;-2.10;100.00;95425.88;5060067;28;20037;-47
2022/02/15 04:35:26;;;;;;;45.95;19.83;;;;;;;-2.08;100.00;95416.34;5044559;28;20395;-48
2022/02/15 04:37:55;;;;;;;48.15;22.85;;;;;;;-2.01;100.00;95422.50;5044844;28;20796;-48
2022/02/15 04:40:24;;;;;;;48.15;22.55;;;;;;;-2.04;100.00;95422.78;5054984;28;20132;-48
2022/02/15 04:42:51;;;;;;;54.83;27.90;;;;;;;-2.15;100.00;95421.97;5059344;28;20537;-48
2022/02/15 04:45:18;;;;;;;69.65;31.77;;;;;;;-2.12;100.00;95421.72;5061148;28;20067;-47
2022/02/15 04:47:49;;;;;;;70.05;33.53;;;;;;;-2.04;100.00;95422.78;5043553;28;20052;-49
2022/02/15 04:50:19;;;;;;;72.18;37.88;;;;;;;-1.98;100.00;95422.19;5060119;28;20100;-49
2022/02/15 04:52:48;;;;;;;74.80;38.03;;;;;;;-1.96;100.00;95420.34;5046077;28;20410;-48
2022/02/15 04:55:19;;;;;;;79.78;40.88;;;;;;;-1.92;100.00;95424.22;5047520;28;20119;-48
2022/02/15 04:57:53;;;;;;;86.60;41.00;;;;;;;-1.90;100.00;95424.88;5050171;28;20079;-49
2022/02/15 05:00:20;;;;;;;72.50;35.40;;;;;;;-1.87;100.00;95428.91;5045515;28;20040;-48
2022/02/15 05:03:05;;;;;;;62.53;32.45;;;;;;;-1.89;100.00;95423.94;5045104;28;20048;-49
2022/02/15 05:05:32;;;;;;;76.85;32.83;;;;;;;-1.89;100.00;95431.59;5044325;28;20045;-49
2022/02/15 05:07:59;;;;;;;86.68;35.35;;;;;;;-1.88;100.00;95430.66;5049981;28;20136;-48
2022/02/15 05:10:27;;;;;;;83.07;38.50;;;;;;;-1.92;100.00;95429.31;5045011;28;20146;-47
2022/02/15 05:12:55;;;;;;;84.05;37.40;;;;;;;-1.92;100.00;95421.66;5046766;28;20064;-48
2022/02/15 05:15:45;;;;;;;80.55;36.88;;;;;;;-1.95;100.00;95421.94;5055663;28;20067;-49
2022/02/15 05:18:19;;;;;;;;;;;;;;;-2.00;100.00;95424.91;5044363;28;20072;-47
2022/02/15 05:20:53;;;;;;;47.22;23.38;;;;;;;-2.04;100.00;95422.78;5048613;28;20370;-49
2022/02/15 05:23:20;;;;;;;37.35;19.08;;;;;;;-2.06;100.00;95422.09;5044007;28;20065;-47
2022/02/15 05:25:47;;;;;;;38.92;20.08;;;;;;;-2.04;100.00;95427.88;5044938;28;20207;-48
2022/02/15 05:28:34;;;;;;;43.17;21.55;;;;;;;-2.04;100.00;95432.97;5050178;28;20629;-47
2022/02/15 05:31:04;;;;;;;41.20;19.52;;;;;;;-2.04;100.00;95432.97;5044419;28;21000;-48
2022/02/15 05:33:36;;;;;;;32.63;16.88;;;;;;;-2.09;100.00;95430.81;5045124;28;20045;-47
2022/02/15 05:36:06;;;;;;;37.50;19.02;;;;;;;-2.06;100.00;95442.53;5043124;28;20469;-49
2022/02/15 05:38:37;;;;;;;53.00;23.35;;;;;;;-2.14;100.00;95459.34;5043498;28;20120;-48
2022/02/15 05:41:05;;;;;;;59.10;26.85;;;;;;;-2.07;100.00;95461.31;5043540;28;20442;-46
2022/02/15 05:43:34;;;;;;;54.85;26.88;;;;;;;-2.00;100.00;95450.44;5059932;28;20680;-48
2022/02/15 05:46:05;;;;;;;66.10;25.60;;;;;;;-1.93;100.00;95451.50;5044160;28;20084;-48
2022/02/15 05:48:39;;;;;;;52.78;25.38;;;;;;;-1.87;100.00;95455.25;5046242;28;20049;-50
2022/02/15 05:51:32;;;;;;;69.03;25.90;;;;;;;-1.84;100.00;95449.06;5045099;28;20057;-47
2022/02/15 05:54:21;;;;;;;78.38;28.70;;;;;;;-1.76;100.00;95457.63;5043351;28;20041;-46
2022/02/15 05:56:50;;;;;;;70.03;33.13;;;;;;;-1.67;100.00;95460.31;5046080;28;20051;-48
2022/02/15 05:59:27;;;;;;;64.47;32.42;;;;;;;-1.66;100.00;95462.69;5046283;28;20044;-48
2022/02/15 06:02:07;;;;;;;67.18;27.38;;;;;;;-1.70;100.00;95465.69;5043610;28;20041;-48
2022/02/15 06:04:41;;;;;;;57.42;30.52;;;;;;;-1.61;100.00;95485.28;5043291;28;20045;-48
2022/02/15 06:07:12;;;;;;;64.40;28.67;;;;;;;-1.56;100.00;95490.78;5042952;28;20619;-47
2022/02/15 06:09:39;;;;;;;36.00;16.40;;;;;;;-1.79;100.00;95488.53;5055066;28;20051;-50
2022/02/15 06:12:08;;;;;;;40.75;20.13;;;;;;;-1.87;100.00;95480.78;5056748;28;20055;-50
2022/02/15 06:14:42;;;;;;;28.20;16.05;;;;;;;-2.05;100.00;95477.31;5041096;28;20052;-50
2022/02/15 06:17:13;;;;;;;48.00;19.70;;;;;;;-2.05;100.00;95483.25;5045494;28;20406;-49
2022/02/15 06:19:46;;;;;;;42.13;20.90;;;;;;;-1.96;100.00;95477.31;5044091;28;20072;-47
2022/02/15 06:22:13;;;;;;;34.92;17.75;;;;;;;-1.85;100.00;95478.91;5042898;28;20052;-47
2022/02/15 06:24:41;;;;;;;43.47;20.60;;;;;;;-1.74;100.00;95481.28;5042991;28;20041;-47
2022/02/15 06:27:15;;;;;;;55.03;21.52;;;;;;;-1.61;100.00;95490.41;5059105;28;20057;-49
2022/02/15 06:30:03;;;;;;;44.65;21.33;;;;;;;-1.40;100.00;95487.63;5042183;28;20406;-48
2022/02/15 06:32:40;;;;;;;60.38;27.90;;;;;;;-1.24;100.00;95484.44;5059678;28;20499;-48
2022/02/15 06:35:12;;;;;;;58.83;27.85;;;;;;;-1.13;100.00;95498.81;5045333;28;20517;-47
2022/02/15 06:37:45;;;;;;;59.83;28.30;;;;;;;-1.14;100.00;95503.13;5046006;28;20048;-49
2022/02/15 06:40:14;;;;;;;48.75;25.98;;;;;;;-1.25;100.00;95495.63;5041581;28;20053;-48
2022/02/15 06:42:47;;;;;;;61.95;29.55;;;;;;;-1.33;100.00;95508.31;5047075;28;20430;-49
2022/02/15 06:45:16;;;;;;;39.83;19.40;;;;;;;-1.35;100.00;95503.38;5047642;28;20179;-48
2022/02/15 06:47:44;;;;;;;55.67;23.63;;;;;;;-1.44;100.00;95502.44;5062366;28;20043;-49
2022/02/15 06:50:11;;;;;;;91.65;52.08;;;;;;;-1.54;100.00;95506.78;5055344;28;20120;-51
2022/02/15 06:52:43;;;;;;;48.25;23.27;;;;;;;-1.45;100.00;95495.72;5046845;28;20127;-47
2022/02/15 06:55:50;;;;;;;42.30;22.20;;;;;;;-1.18;100.00;95496.69;5046457;28;20063;-48
2022/02/15 06:58:18;;;;;;;40.15;21.58;;;;;;;-1.03;100.00;95500.38;5063185;28;20414;-49
2022/02/15 07:00:45;;;;;;;53.60;27.10;;;;;;;-0.86;100.00;95498.81;5045738;28;20068;-49
2022/02/15 07:03:17;;;;;;;52.72;25.15;;;;;;;-0.84;100.00;95496.13;5046330;28;20061;-50
2022/02/15 07:05:44;;;;;;;44.20;22.40;;;;;;;-0.79;100.00;95496.50;5047382;28;20045;-48
2022/02/15 07:08:11;;;;;;;48.47;24.08;;;;;;;-0.66;100.00;95496.94;5047948;28;20047;-47
2022/02/15 07:10:39;;;;;;;55.92;24.45;;;;;;;-0.47;100.00;95492.63;5048994;28;20696;-49
2022/02/15 07:13:07;;;;;;;38.88;21.90;;;;;;;-0.33;100.00;95496.44;5049577;28;20131;-50
2022/02/15 07:15:38;;;;;;;46.97;22.20;;;;;;;-0.23;100.00;95505.66;5060925;28;20053;-47
2022/02/15 07:18:13;;;;;;;46.28;23.73;;;;;;;-0.10;100.00;95512.16;5056886;28;20053;-47
2022/02/15 07:21:10;;;;;;;55.47;23.42;;;;;;;0.04;100.00;95503.94;5048440;28;20128;-47
2022/02/15 07:23:59;;;;;;;54.42;24.77;;;;;;;0.18;100.00;95505.97;5045618;28;20049;-47
2022/02/15 07:27:04;;;;;;;45.90;21.90;;;;;;;0.41;100.00;95502.91;5022573;28;20049;-49
2022/02/15 07:29:38;;;;;;;113.30;45.33;;;;;;;0.51;100.00;95495.91;5004927;28;20047;-47
2022/02/15 07:32:26;;;;;;;60.30;28.55;;;;;;;0.70;100.00;95494.06;5032168;28;20132;-48
2022/02/15 07:34:56;;;;;;;69.13;29.88;;;;;;;0.89;100.00;95493.84;5046901;28;20135;-46
2022/02/15 07:37:23;;;;;;;67.90;29.73;;;;;;;1.05;100.00;95507.72;5050152;28;20064;-48
2022/02/15 07:39:50;;;;;;;50.05;24.30;;;;;;;1.09;100.00;95509.00;5046014;28;20048;-51
2022/02/15 07:42:17;;;;;;;63.38;27.52;;;;;;;1.23;100.00;95500.69;5047847;28;20482;-47
2022/02/15 07:44:45;;;;;;;64.40;31.15;;;;;;;1.23;100.00;95508.41;5049333;28;20049;-50
2022/02/15 07:47:12;;;;;;;52.08;27.52;;;;;;;1.34;100.00;95497.84;5045034;28;20447;-51
2022/02/15 07:49:42;;;;;;;63.13;29.02;;;;;;;1.48;100.00;95498.19;5045051;28;20037;-49
2022/02/15 07:52:09;;;;;;;49.35;22.92;;;;;;;1.58;100.00;95491.13;5045375;28;20052;-51
2022/02/15 07:54:37;;;;;;;49.58;23.35;;;;;;;1.63;100.00;95501.75;5045291;28;20063;-48
2022/02/15 07:57:06;;;;;;;50.83;25.10;;;;;;;1.75;100.00;95509.13;5046128;28;20430;-49
2022/02/15 07:59:33;;;;;;;40.00;20.20;;;;;;;1.64;100.00;95502.53;5042470;28;20048;-49
2022/02/15 08:02:00;;;;;;;45.88;20.17;;;;;;;1.71;100.00;95496.63;5045240;28;20063;-47
2022/02/15 08:04:28;;;;;;;49.47;23.50;;;;;;;1.77;100.00;95502.09;5044475;28;20502;-47
2022/02/15 08:06:59;;;;;;;51.72;24.15;;;;;;;1.74;100.00;95497.25;5045322;28;20045;-48
2022/02/15 08:09:26;;;;;;;56.35;24.52;;;;;;;1.88;100.00;95499.19;5046051;28;20073;-50
2022/02/15 08:11:54;;;;;;;47.25;22.92;;;;;;;1.93;100.00;95502.09;5045160;28;20127;-47
2022/02/15 08:14:23;;;;;;;44.78;20.65;;;;;;;2.04;100.00;95483.78;5044278;28;20712;-50
2022/02/15 08:16:52;;;;;;;44.00;20.90;;;;;;;2.25;100.00;95497.88;5047845;28;20037;-49
2022/02/15 08:19:23;;;;;;;41.20;20.70;;;;;;;2.35;100.00;95501.09;5048762;28;20049;-47
2022/02/15 08:21:50;;;;;;;41.30;22.67;;;;;;;2.46;100.00;95502.53;5051923;28;20053;-47
2022/02/15 08:24:17;;;;;;;40.20;20.77;;;;;;;2.53;100.00;95497.53;5051394;28;20064;-48
2022/02/15 08:26:44;;;;;;;42.20;19.65;;;;;;;2.57;100.00;95501.38;5047446;28;20059;-48
2022/02/15 08:29:12;;;;;;;51.28;20.13;;;;;;;2.59;100.00;95512.28;5044678;28;20156;-50
2022/02/15 08:31:41;;;;;;;37.08;18.15;;;;;;;2.37;100.00;95509.44;5044286;28;20044;-47
2022/02/15 08:34:08;;;;;;;43.00;19.58;;;;;;;2.40;100.00;95514.28;5045888;28;20071;-48
2022/02/15 08:36:34;;;;;;;42.80;20.55;;;;;;;2.40;100.00;95509.13;5046809;28;20102;-47
2022/02/15 08:39:02;;;;;;;39.90;20.10;;;;;;;2.35;100.00;95501.09;5046364;28;20049;-47
2022/02/15 08:41:29;;;;;;;39.63;18.77;;;;;;;2.45;100.00;95500.94;5046825;28;20098;-50
2022/02/15 08:43:57;;;;;;;39.33;18.00;;;;;;;2.35;100.00;95500.31;5047664;28;20044;-46
2022/02/15 08:46:25;;;;;;;45.80;21.40;;;;;;;2.39;100.00;95484.38;5046831;28;20098;-46
2022/02/15 08:48:52;;;;;;;50.95;22.95;;;;;;;2.67;100.00;95494.28;5045741;28;20457;-47
2022/02/15 08:51:20;;;;;;;50.38;23.73;;;;;;;2.83;100.00;95493.44;5045676;28;20052;-48
2022/02/15 08:53:50;;;;;;;39.83;18.77;;;;;;;3.09;100.00;95488.00;5045210;28;20491;-47
2022/02/15 08:56:20;;;;;;;43.25;19.27;;;;;;;3.29;100.00;95492.75;5046388;28;20509;-49
2022/02/15 08:58:50;;;;;;;48.05;22.40;;;;;;;3.42;100.00;95493.00;5044954;28;20414;-49
2022/02/15 09:01:17;;;;;;;43.13;18.55;;;;;;;3.52;100.00;95492.78;5047174;28;21209;-49
2022/02/15 09:03:46;;;;;;;45.88;20.75;;;;;;;3.82;100.00;95489.38;5043309;28;20041;-47
2022/02/15 09:06:13;;;;;;;37.85;19.50;;;;;;;4.07;100.00;95483.19;5045878;28;20041;-47
2022/02/15 09:08:40;;;;;;;41.47;20.83;;;;;;;4.34;100.00;95487.81;5044884;28;20049;-47
2022/02/15 09:11:07;;;;;;;48.50;19.55;;;;;;;4.61;100.00;95477.88;5042268;28;20032;-49
2022/02/15 09:13:34;;;;;;;37.78;18.48;;;;;;;4.87;98.41;95485.16;5044096;28;20051;-47
2022/02/15 09:16:01;;;;;;;45.92;18.55;;;;;;;4.93;95.40;95475.91;5045525;28;20964;-47
2022/02/15 09:18:28;;;;;;;33.55;16.80;;;;;;;5.11;95.37;95473.75;5045768;28;20529;-49
2022/02/15 09:20:55;;;;;;;37.13;16.98;;;;;;;5.29;93.59;95475.91;5044390;28;20041;-48
2022/02/15 09:23:22;;;;;;;33.50;17.35;;;;;;;5.48;93.37;95479.72;5047932;28;20053;-47
2022/02/15 09:25:49;;;;;;;37.00;16.52;;;;;;;5.48;91.17;95481.50;5044498;28;20036;-49
2022/02/15 09:28:16;;;;;;;34.05;16.58;;;;;;;5.70;92.29;95471.97;5045056;28;20045;-47
2022/02/15 09:30:43;;;;;;;35.97;17.42;;;;;;;5.97;91.29;95477.44;5044799;28;20036;-46
2022/02/15 09:33:10;;;;;;;33.28;16.38;;;;;;;6.04;89.28;95473.13;5050100;28;20040;-47
2022/02/15 09:35:57;;;;;;;36.95;14.40;;;;;;;6.09;88.09;95470.78;5047862;28;20458;-47
2022/02/15 09:38:24;;;;;;;32.00;15.77;;;;;;;6.19;85.72;95473.03;5047218;28;20045;-47
2022/02/15 09:40:52;;;;;;;33.97;16.55;;;;;;;6.15;86.67;95469.22;5045022;28;20414;-47
2022/02/15 09:43:19;;;;;;;34.85;15.43;;;;;;;6.41;86.36;95468.59;5053931;28;20094;-48
2022/02/15 09:45:48;;;;;;;30.45;16.40;;;;;;;6.47;86.36;95462.69;5044917;28;20041;-46
2022/02/15 09:48:24;;;;;;;23.75;11.55;;;;;;;6.50;86.19;95455.34;5044128;28;20044;-49
2022/02/15 09:50:51;;;;;;;30.13;14.40;;;;;;;6.46;86.97;95448.97;5045359;28;20048;-47
2022/02/15 09:53:19;;;;;;;37.55;14.57;;;;;;;6.67;87.54;95450.66;5045364;28;20049;-48
2022/02/15 09:55:46;;;;;;;41.30;19.85;;;;;;;7.02;87.19;95448.03;5046368;28;20144;-47
2022/02/15 09:58:14;;;;;;;32.50;16.25;;;;;;;7.33;85.68;95441.56;5044171;28;20057;-47
2022/02/15 10:00:44;;;;;;;24.92;13.10;;;;;;;7.31;82.56;95438.38;5044064;28;20073;-47
2022/02/15 10:03:12;;;;;;;33.50;13.70;;;;;;;7.12;83.66;95428.75;5044487;28;20435;-47
2022/02/15 10:05:39;;;;;;;27.33;12.30;;;;;;;7.36;84.10;95420.44;5045478;28;20057;-47
2022/02/15 10:08:06;;;;;;;33.88;14.45;;;;;;;7.68;83.38;95420.69;5043664;28;20049;-47
2022/02/15 10:10:34;;;;;;;29.98;13.63;;;;;;;7.72;81.12;95419.28;5042913;28;20052;-48
2022/02/15 10:13:04;;;;;;;34.67;16.42;;;;;;;8.01;80.71;95425.09;5043027;28;20045;-48
2022/02/15 10:15:40;;;;;;;21.42;13.15;;;;;;;8.41;81.18;95422.50;5043930;28;20040;-47
2022/02/15 10:18:17;;;;;;;22.88;11.13;;;;;;;8.53;77.07;95410.50;5047582;28;20090;-48
2022/02/15 10:20:46;;;;;;;23.58;13.93;;;;;;;8.76;78.39;95409.25;5045998;28;20380;-48
2022/02/15 10:23:20;;;;;;;24.83;10.90;;;;;;;8.96;75.68;95402.16;5047662;28;20045;-48
2022/02/15 10:25:49;;;;;;;30.52;13.35;;;;;;;9.15;76.78;95394.50;5047221;28;20146;-47
2022/02/15 10:28:21;;;;;;;24.30;11.65;;;;;;;9.44;75.74;95387.16;5046886;28;20103;-47
2022/02/15 10:30:50;;;;;;;21.35;11.93;;;;;;;9.59;74.15;95382.44;5046584;28;20049;-49
2022/02/15 10:33:19;;;;;;;22.35;11.52;;;;;;;9.75;71.50;95381.91;5046955;28;20048;-46
2022/02/15 10:36:07;;;;;;;24.50;10.93;;;;;;;9.93;70.00;95382.97;5045981;28;20059;-48
2022/02/15 10:38:36;;;;;;;25.17;12.35;;;;;;;10.12;68.06;95376.81;5047897;28;20498;-50
2022/02/15 10:41:11;;;;;;;24.08;12.15;;;;;;;9.71;67.69;95367.75;5045555;28;20438;-50
2022/02/15 10:43:54;;;;;;;21.33;10.68;;;;;;;9.12;66.06;95374.13;5049302;28;20044;-46
2022/02/15 10:46:24;;;;;;;20.93;11.73;;;;;;;8.87;67.65;95364.44;5046780;28;20499;-48
2022/02/15 10:48:53;;;;;;;21.52;10.85;;;;;;;9.31;67.43;95365.41;5047186;28;20462;-51
2022/02/15 10:51:40;;;;;;;19.33;9.25;;;;;;;9.55;65.81;95365.66;5046408;28;20033;-49
2022/02/15 10:54:10;;;;;;;30.15;9.70;;;;;;;9.34;66.49;95359.78;5053878;28;20399;-46
2022/02/15 10:56:41;;;;;;;19.58;11.80;;;;;;;9.35;66.82;95361.38;5049381;28;20059;-47
2022/02/15 10:59:11;;;;;;;26.85;13.52;;;;;;;9.73;65.19;95352.72;5047534;28;20048;-48
2022/02/15 11:01:43;;;;;;;21.85;12.73;;;;;;;9.60;65.14;95347.63;5049174;28;20041;-46
2022/02/15 11:04:10;;;;;;;21.60;11.00;;;;;;;10.06;65.15;95345.63;5047393;28;20048;-49
2022/02/15 11:06:36;;;;;;;23.88;10.85;;;;;;;10.40;62.65;95341.72;5046655;28;20036;-47
2022/02/15 11:09:09;;;;;;;30.05;13.82;;;;;;;10.88;61.53;95338.38;5047541;28;20049;-48
2022/02/15 11:11:55;;;;;;;21.20;12.25;;;;;;;11.27;59.79;95331.03;5046560;28;20137;-46
2022/02/15 11:14:23;;;;;;;46.03;23.38;;;;;;;11.62;59.02;95327.69;5048324;28;20049;-47
2022/02/15 11:16:51;;;;;;;43.17;18.77;;;;;;;11.76;56.91;95327.50;5047060;28;20041;-48
2022/02/15 11:19:21;;;;;;;20.80;10.75;;;;;;;11.58;55.35;95331.78;5047729;28;20048;-47
2022/02/15 11:21:55;;;;;;;802.78;341.35;;;;;;;11.57;56.96;95335.41;5047803;28;20549;-46
2022/02/15 11:24:21;;;;;;;210.55;88.65;;;;;;;11.95;56.13;95331.59;5048422;28;20059;-47
2022/02/15 11:26:48;;;;;;;500.13;221.50;;;;;;;12.37;54.76;95318.44;5046580;28;20064;-49
2022/02/15 11:29:19;;;;;;;238.73;99.18;;;;;;;12.20;52.67;95320.13;5050212;28;20053;-49
2022/02/15 11:31:46;;;;;;;611.58;220.15;;;;;;;12.08;54.03;95314.91;5047643;28;20483;-48
2022/02/15 11:34:13;;;;;;;577.00;216.25;;;;;;;12.23;52.45;95311.84;5046557;28;20399;-48